Time;durP1;ratioP1;P1;durP2;ratioP2;P2;SDS_P1;SDS_P2;PMS_P1;PMS_P2;Temp;Humidity;BMP_temperature;BMP_pressure;BME280_temperature;BME280_humidity;BME280_pressure;Samples;Min_cycle;Max_cycle;Signal;HPM_P1;HPM_P2
2021/06/06 00:00:41;;;;;;;;;9.25;8.25;;;;;16.80;62.71;102433.22;5081009;28;45417;-76
2021/06/06 00:03:13;;;;;;;;;11.75;9.50;;;;;16.74;62.89;102428.09;5075159;27;45491;-76
2021/06/06 00:05:45;;;;;;;;;10.25;10.00;;;;;16.69;63.31;102430.03;5080387;28;46358;-78
2021/06/06 00:08:11;;;;;;;;;9.25;8.50;;;;;16.60;63.53;102421.44;5082477;27;45610;-76
2021/06/06 00:10:36;;;;;;;;;11.25;10.50;;;;;16.57;63.03;102423.34;5081186;27;45250;-76
2021/06/06 00:13:02;;;;;;;;;10.50;10.50;;;;;16.51;63.69;102419.09;5080802;28;46176;-76
2021/06/06 00:15:27;;;;;;;;;10.25;8.75;;;;;16.44;63.97;102417.53;5080901;28;47173;-77
2021/06/06 00:17:53;;;;;;;;;9.75;9.00;;;;;16.41;63.82;102422.03;5080424;28;45404;-77
2021/06/06 00:20:18;;;;;;;;;7.75;7.75;;;;;16.33;63.77;102421.38;5082052;27;45378;-77
2021/06/06 00:22:44;;;;;;;;;8.25;8.25;;;;;16.33;62.94;102428.47;5081819;28;45259;-78
2021/06/06 00:25:12;;;;;;;;;6.00;6.00;;;;;16.29;62.90;102414.44;5080154;28;48068;-76
2021/06/06 00:27:38;;;;;;;;;6.25;5.75;;;;;16.31;62.26;102428.53;5081854;27;45211;-76
2021/06/06 00:30:10;;;;;;;;;7.00;7.00;;;;;16.31;62.13;102423.22;5080616;28;45219;-76
2021/06/06 00:32:36;;;;;;;;;5.25;5.25;;;;;16.33;61.68;102421.38;5081241;27;45293;-76
2021/06/06 00:35:02;;;;;;;;;6.00;6.00;;;;;16.35;61.04;102429.28;5081560;27;45435;-76
2021/06/06 00:37:28;;;;;;;;;7.00;4.00;;;;;16.33;61.01;102424.03;5086686;27;45499;-76
2021/06/06 00:39:53;;;;;;;;;4.25;4.25;;;;;16.31;60.77;102420.56;5081567;27;45232;-74
2021/06/06 00:42:20;;;;;;;;;6.75;5.25;;;;;16.32;59.20;102422.31;5081293;27;45345;-75
2021/06/06 00:44:47;;;;;;;;;3.25;3.25;;;;;16.29;59.27;102414.44;5081881;27;45361;-73
2021/06/06 00:47:12;;;;;;;;;4.75;4.00;;;;;16.23;58.16;102409.31;5080781;27;45775;-73
2021/06/06 00:49:37;;;;;;;;;5.00;5.00;;;;;16.19;59.17;102416.50;5081847;27;45625;-72
2021/06/06 00:52:04;;;;;;;;;4.50;4.50;;;;;16.17;58.51;102408.56;5081073;27;45416;-75
2021/06/06 00:54:33;;;;;;;;;6.00;4.00;;;;;16.20;59.79;102408.50;5081140;27;45628;-75
2021/06/06 00:57:05;;;;;;;;;3.00;3.00;;;;;16.21;60.25;102412.03;5081142;27;45320;-74
2021/06/06 00:59:33;;;;;;;;;4.00;4.00;;;;;16.17;60.38;102399.78;5081853;27;45316;-76
2021/06/06 01:01:58;;;;;;;;;6.00;4.50;;;;;16.14;60.37;102397.19;5081115;28;45257;-77
2021/06/06 01:04:24;;;;;;;;;5.75;5.00;;;;;16.14;60.58;102411.34;5071585;27;46789;-75
2021/06/06 01:06:54;;;;;;;;;5.00;5.00;;;;;16.06;60.71;102400.09;5080110;28;45324;-75
2021/06/06 01:09:22;;;;;;;;;4.25;4.25;;;;;16.03;61.14;102406.31;5080993;27;45360;-75
2021/06/06 01:11:55;;;;;;;;;3.50;3.50;;;;;15.96;61.47;102397.69;5080988;28;45246;-75
2021/06/06 01:14:37;;;;;;;;;5.00;5.00;;;;;15.90;61.53;102405.78;5080897;27;46512;-75
2021/06/06 01:17:11;;;;;;;;;5.00;4.50;;;;;15.85;61.80;102410.38;5080777;27;45659;-77
2021/06/06 01:19:40;;;;;;;;;7.25;5.25;;;;;15.78;62.35;102403.53;5081206;27;45309;-77
2021/06/06 01:22:18;;;;;;;;;6.00;6.00;;;;;15.72;62.40;102408.06;5081198;27;45291;-77
2021/06/06 01:24:48;;;;;;;;;8.50;5.00;;;;;15.68;62.27;102400.25;5079457;28;48239;-77
2021/06/06 01:27:14;;;;;;;;;5.25;4.50;;;;;15.63;62.46;102398.59;5080970;27;45710;-74
2021/06/06 01:30:09;;;;;;;;;6.50;6.50;;;;;15.59;62.86;102402.25;5080939;28;45298;-73
2021/06/06 01:32:51;;;;;;;;;6.00;6.00;;;;;15.55;62.71;102391.78;5072393;28;45288;-73
2021/06/06 01:35:29;;;;;;;;;4.50;4.50;;;;;15.50;61.79;102391.91;5081011;27;46507;-73
2021/06/06 01:38:03;;;;;;;;;4.25;4.00;;;;;15.47;62.42;102389.31;5080887;27;45247;-73
2021/06/06 01:40:32;;;;;;;;;8.75;6.50;;;;;15.42;61.84;102397.41;5080360;27;45336;-73
2021/06/06 01:43:03;;;;;;;;;6.50;4.50;;;;;15.41;62.42;102393.00;5080637;27;45399;-73
2021/06/06 01:45:34;;;;;;;;;4.25;4.25;;;;;15.39;62.69;102392.19;5080698;27;46251;-73
2021/06/06 01:48:07;;;;;;;;;5.25;5.25;;;;;15.37;62.13;102399.31;5079862;27;45366;-73
2021/06/06 01:50:41;;;;;;;;;7.25;5.50;;;;;15.32;63.01;102393.25;5080837;27;45223;-73
2021/06/06 01:53:09;;;;;;;;;5.25;5.25;;;;;15.26;62.56;102387.22;5080631;27;45350;-73
2021/06/06 01:55:53;;;;;;;;;4.50;4.50;;;;;15.24;62.54;102388.16;5079655;27;46362;-73
2021/06/06 01:58:21;;;;;;;;;6.50;5.00;;;;;15.21;62.65;102388.25;5079554;27;45628;-73
2021/06/06 02:00:53;;;;;;;;;8.75;5.00;;;;;15.17;61.88;102384.81;5080543;27;45436;-73
2021/06/06 02:03:19;;;;;;;;;6.50;5.75;;;;;15.17;62.02;102382.16;5079522;27;46693;-73
2021/06/06 02:05:44;;;;;;;;;5.00;4.50;;;;;15.18;61.12;102375.97;5080140;27;45248;-73
2021/06/06 02:08:14;;;;;;;;;6.50;5.75;;;;;15.20;61.63;102379.44;5080411;27;45284;-73
2021/06/06 02:10:45;;;;;;;;;7.50;6.00;;;;;15.21;62.02;102372.38;5079701;27;45443;-73
2021/06/06 02:13:23;;;;;;;;;4.75;3.50;;;;;15.22;62.42;102374.09;5079579;27;45545;-73
2021/06/06 02:15:52;;;;;;;;;6.00;3.75;;;;;15.18;62.10;102373.31;5079756;27;45402;-73
2021/06/06 02:18:19;;;;;;;;;6.00;4.75;;;;;15.17;62.24;102368.91;5078705;28;46020;-73
2021/06/06 02:20:48;;;;;;;;;10.25;6.25;;;;;15.13;62.49;102368.16;5080195;27;45409;-73
2021/06/06 02:23:22;;;;;;;;;4.00;4.00;;;;;15.09;62.50;102362.97;5079802;27;45461;-73
2021/06/06 02:25:48;;;;;;;;;6.25;6.25;;;;;15.03;62.87;102356.94;5080018;27;46238;-74
2021/06/06 02:28:31;;;;;;;;;5.00;5.00;;;;;14.94;62.67;102360.66;5080174;27;45502;-74
2021/06/06 02:31:38;;;;;;;;;5.25;5.25;;;;;14.93;62.99;102358.94;5067949;28;45248;-74
2021/06/06 02:34:19;;;;;;;;;5.50;4.75;;;;;14.88;62.40;102362.59;5073536;28;45398;-75
2021/06/06 02:36:55;;;;;;;;;5.50;5.50;;;;;14.85;61.24;102361.78;5079968;27;45245;-75
2021/06/06 02:39:25;;;;;;;;;7.50;6.50;;;;;14.85;60.81;102356.47;5079237;27;45512;-75
2021/06/06 02:42:05;;;;;;;;;6.00;4.75;;;;;14.89;60.73;102351.97;5079950;27;45418;-75
2021/06/06 02:44:52;;;;;;;;;8.00;6.00;;;;;14.93;61.07;102342.19;5079757;27;45266;-75
2021/06/06 02:47:23;;;;;;;;;5.75;5.50;;;;;14.94;60.89;102344.78;5078880;28;45386;-76
2021/06/06 02:49:50;;;;;;;;;5.50;5.50;;;;;14.97;61.24;102338.53;5068341;28;45300;-75
2021/06/06 02:52:22;;;;;;;;;5.25;5.00;;;;;14.99;61.04;102339.34;5078348;28;45262;-75
2021/06/06 02:55:00;;;;;;;;;6.00;5.25;;;;;14.99;61.11;102334.06;5079703;27;45193;-76
2021/06/06 02:57:28;;;;;;;;;7.50;4.50;;;;;14.97;61.93;102333.25;5079283;27;45443;-75
2021/06/06 03:00:22;;;;;;;;;7.25;4.75;;;;;14.94;61.34;102343.91;5079471;27;45262;-75
2021/06/06 03:02:53;;;;;;;;;7.50;4.75;;;;;14.89;62.20;102337.88;5079673;27;45412;-75
2021/06/06 03:05:25;;;;;;;;;5.50;5.50;;;;;14.87;61.65;102337.91;5079598;28;45329;-75
2021/06/06 03:07:58;;;;;;;;;4.75;3.75;;;;;14.83;60.28;102334.44;5078001;28;47141;-75
2021/06/06 03:10:27;;;;;;;;;6.25;4.00;;;;;14.81;60.54;102327.44;5079356;27;45398;-76
2021/06/06 03:12:58;;;;;;;;;3.75;3.75;;;;;14.81;60.03;102324.81;5079688;27;45342;-75
2021/06/06 03:15:30;;;;;;;;;3.75;3.75;;;;;14.84;60.89;102320.28;5078400;28;46100;-75
2021/06/06 03:17:57;;;;;;;;;5.00;5.00;;;;;14.85;60.98;102324.72;5078884;27;46401;-76
2021/06/06 03:20:30;;;;;;;;;6.75;4.50;;;;;14.87;60.69;102324.66;5079276;27;45263;-76
2021/06/06 03:22:58;;;;;;;;;4.25;4.25;;;;;14.88;61.15;102326.41;5083515;27;45234;-76
2021/06/06 03:25:45;;;;;;;;;5.75;5.75;;;;;14.87;60.63;102324.66;5082780;27;45505;-76
2021/06/06 03:28:13;;;;;;;;;4.00;4.00;;;;;14.88;61.58;102330.84;5083070;27;45412;-75
2021/06/06 03:30:42;;;;;;;;;3.00;3.00;;;;;14.87;61.74;102321.13;5081421;28;46139;-75
2021/06/06 03:33:12;;;;;;;;;7.00;7.00;;;;;14.85;61.61;102330.00;5082843;27;45224;-76
2021/06/06 03:35:37;;;;;;;;;7.50;6.50;;;;;14.81;62.07;102328.31;5082847;27;45303;-74
2021/06/06 03:38:05;;;;;;;;;5.75;5.00;;;;;14.79;61.49;102324.81;5082314;27;45962;-76
2021/06/06 03:40:36;;;;;;;;;5.00;5.00;;;;;14.77;61.51;102329.28;5083266;27;45156;-76
2021/06/06 03:43:04;;;;;;;;;7.25;7.25;;;;;14.74;62.14;102332.88;5081166;28;45476;-76
2021/06/06 03:45:29;;;;;;;;;7.25;6.75;;;;;14.74;62.65;102330.22;5082580;27;45180;-76
2021/06/06 03:47:56;;;;;;;;;5.00;5.00;;;;;14.74;62.77;102330.22;5082371;27;45237;-76
2021/06/06 03:50:23;;;;;;;;;8.75;7.25;;;;;14.74;62.15;102332.03;5082301;27;45273;-74
2021/06/06 03:52:49;;;;;;;;;6.25;6.00;;;;;14.69;62.07;102321.53;5082374;27;45461;-74
2021/06/06 03:55:18;;;;;;;;;6.75;6.75;;;;;14.65;61.96;102317.25;5080798;28;46136;-74
2021/06/06 03:57:44;;;;;;;;;8.50;7.50;;;;;14.72;62.04;102328.53;5082417;28;45312;-74
2021/06/06 04:00:21;;;;;;;;;8.50;6.50;;;;;14.72;62.36;102331.19;5081768;28;45456;-73
2021/06/06 04:02:46;;;;;;;;;6.50;6.25;;;;;14.70;62.38;102325.06;5078129;27;45242;-75
2021/06/06 04:05:12;;;;;;;;;4.25;4.25;;;;;14.72;62.42;102324.13;5081129;28;46135;-75
2021/06/06 04:07:38;;;;;;;;;7.75;7.25;;;;;14.70;62.46;102318.00;5082141;27;45365;-75
2021/06/06 04:10:05;;;;;;;;;8.25;7.50;;;;;14.73;62.77;102317.06;5081600;28;45356;-74
2021/06/06 04:12:31;;;;;;;;;6.25;6.25;;;;;14.73;62.61;102330.28;5082222;27;45282;-74
2021/06/06 04:14:56;;;;;;;;;8.50;7.75;;;;;14.72;63.16;102321.47;5082309;27;45275;-73
2021/06/06 04:17:22;;;;;;;;;6.75;6.75;;;;;14.72;63.05;102323.25;5081711;27;46005;-73
2021/06/06 04:19:48;;;;;;;;;4.50;4.50;;;;;14.67;63.49;102317.22;5081702;27;45394;-72
2021/06/06 04:22:13;;;;;;;;;5.00;4.50;;;;;14.65;62.46;102327.81;5082284;28;45263;-74
2021/06/06 04:24:38;;;;;;;;;5.50;5.50;;;;;14.61;62.49;102326.19;5081992;27;45511;-74
2021/06/06 04:27:04;;;;;;;;;8.25;6.00;;;;;14.61;62.27;102332.34;5081943;27;45250;-74
2021/06/06 04:29:29;;;;;;;;;6.50;6.50;;;;;14.59;62.10;102323.53;5081492;27;45266;-73
2021/06/06 04:31:55;;;;;;;;;8.50;4.75;;;;;14.63;62.03;102330.53;5081933;27;45269;-73
2021/06/06 04:34:20;;;;;;;;;6.75;6.75;;;;;14.64;62.27;102331.41;5081540;27;45197;-73
2021/06/06 04:36:49;;;;;;;;;7.00;7.00;;;;;14.65;62.63;102337.53;5081690;27;45410;-74
2021/06/06 04:39:15;;;;;;;;;8.25;5.00;;;;;14.71;61.90;102334.75;5080828;27;45377;-75
2021/06/06 04:41:40;;;;;;;;;5.00;5.00;;;;;14.70;62.27;102330.34;5082072;27;45328;-75
2021/06/06 04:44:06;;;;;;;;;7.75;7.75;;;;;14.74;62.13;102334.69;5076768;28;46031;-75
2021/06/06 04:46:31;;;;;;;;;7.50;7.25;;;;;14.75;62.78;102336.41;5074680;28;45988;-74
2021/06/06 04:48:57;;;;;;;;;7.00;7.00;;;;;14.77;62.25;102337.22;5081151;27;45448;-74
2021/06/06 04:51:24;;;;;;;;;6.50;6.50;;;;;14.82;62.06;102345.94;5081676;27;45223;-76
2021/06/06 04:53:51;;;;;;;;;7.25;6.50;;;;;14.83;62.05;102339.75;5079818;28;46242;-75
2021/06/06 04:56:18;;;;;;;;;8.00;7.75;;;;;14.83;62.09;102334.44;5081293;27;46374;-75
2021/06/06 04:58:44;;;;;;;;;9.00;9.00;;;;;14.89;62.19;102327.28;5081217;27;45711;-74
2021/06/06 05:01:11;;;;;;;;;5.50;5.50;;;;;14.91;61.97;102330.75;5081820;27;45348;-74
2021/06/06 05:03:36;;;;;;;;;6.50;6.50;;;;;14.89;62.04;102322.84;5078716;27;45484;-74
2021/06/06 05:06:02;;;;;;;;;9.25;8.25;;;;;14.90;61.99;102323.72;5081277;27;46524;-74
2021/06/06 05:08:27;;;;;;;;;7.00;5.00;;;;;14.95;62.20;102327.13;5080560;27;45459;-74
2021/06/06 05:10:54;;;;;;;;;8.00;7.00;;;;;14.97;62.07;102327.94;5080943;27;45455;-74
2021/06/06 05:13:20;;;;;;;;;8.25;7.25;;;;;14.98;62.16;102326.16;5080223;28;47161;-74
2021/06/06 05:15:46;;;;;;;;;9.75;8.25;;;;;15.00;61.95;102324.34;5081097;27;45536;-74
2021/06/06 05:18:12;;;;;;;;;8.50;7.75;;;;;15.00;61.94;102319.06;5080532;28;45512;-74
2021/06/06 05:20:41;;;;;;;;;8.50;7.00;;;;;14.99;61.65;102322.63;5081043;27;45569;-74
2021/06/06 05:23:08;;;;;;;;;8.50;8.50;;;;;14.99;61.83;102319.97;5081308;27;45658;-73
2021/06/06 05:25:37;;;;;;;;;8.75;6.25;;;;;15.01;61.75;102324.31;5079950;28;46431;-74
2021/06/06 05:28:05;;;;;;;;;10.25;8.50;;;;;15.04;61.73;102323.34;5080278;28;45547;-74
2021/06/06 05:30:33;;;;;;;;;9.00;6.25;;;;;15.07;62.00;102321.50;5081328;27;45310;-74
2021/06/06 05:32:59;;;;;;;;;9.00;9.00;;;;;15.10;61.58;102322.31;5080661;27;46126;-74
2021/06/06 05:35:27;;;;;;;;;5.50;5.50;;;;;15.11;61.52;102324.06;5080590;27;45231;-73
2021/06/06 05:37:53;;;;;;;;;11.75;10.50;;;;;15.12;61.04;102326.66;5080530;27;45215;-74
2021/06/06 05:40:19;;;;;;;;;6.25;6.25;;;;;15.18;61.56;102334.47;5075392;28;45483;-73
2021/06/06 05:42:45;;;;;;;;;8.00;6.00;;;;;15.21;61.41;102328.19;5080666;27;45232;-73
2021/06/06 05:45:11;;;;;;;;;9.50;7.50;;;;;15.24;60.38;102330.75;5079617;27;45310;-73
2021/06/06 05:47:37;;;;;;;;;5.50;5.50;;;;;15.25;61.06;102326.34;5079413;27;46057;-74
2021/06/06 05:50:04;;;;;;;;;9.75;7.00;;;;;15.32;60.75;102337.63;5080956;27;45270;-74
2021/06/06 05:52:32;;;;;;;;;10.25;9.00;;;;;15.36;60.92;102334.84;5080470;27;45427;-75
2021/06/06 05:54:58;;;;;;;;;11.25;7.75;;;;;15.39;60.53;102325.94;5080552;28;45260;-76
2021/06/06 05:57:23;;;;;;;;;10.50;9.25;;;;;15.47;60.27;102331.91;5079966;27;45640;-75
2021/06/06 05:59:49;;;;;;;;;9.00;7.25;;;;;15.51;59.97;102333.56;5078590;28;45436;-75
2021/06/06 06:02:14;;;;;;;;;6.50;6.50;;;;;15.60;60.47;102335.09;5079518;27;45448;-75
2021/06/06 06:04:40;;;;;;;;;5.00;5.00;;;;;15.70;60.60;102334.81;5080256;27;46258;-75
2021/06/06 06:07:05;;;;;;;;;5.75;5.25;;;;;15.80;59.48;102340.72;5080256;27;45416;-75
2021/06/06 06:09:30;;;;;;;;;7.75;5.00;;;;;15.88;58.93;102337.84;5079105;27;45331;-75
2021/06/06 06:11:56;;;;;;;;;8.00;5.00;;;;;15.94;59.01;102345.59;5078196;27;45595;-75
2021/06/06 06:14:21;;;;;;;;;6.50;5.25;;;;;15.97;57.80;102350.81;5078937;27;46196;-75
2021/06/06 06:16:46;;;;;;;;;8.25;6.75;;;;;15.92;57.78;102353.59;5074645;27;45314;-75
2021/06/06 06:19:12;;;;;;;;;5.50;5.00;;;;;15.96;57.25;102343.75;5078735;27;45505;-75
2021/06/06 06:21:39;;;;;;;;;7.75;7.75;;;;;16.02;57.35;102340.06;5078516;28;46271;-75
2021/06/06 06:24:06;;;;;;;;;6.00;6.00;;;;;16.11;57.58;102347.78;5079033;27;46108;-75
2021/06/06 06:26:31;;;;;;;;;4.00;3.75;;;;;16.16;57.92;102331.72;5080247;27;45269;-76
2021/06/06 06:28:57;;;;;;;;;4.00;4.00;;;;;16.31;57.31;102335.66;5080105;27;45230;-76
2021/06/06 06:31:22;;;;;;;;;3.50;3.00;;;;;16.40;57.00;102342.44;5080316;27;45152;-75
2021/06/06 06:33:48;;;;;;;;;5.00;5.00;;;;;16.47;57.17;102344.00;5079138;27;46297;-74
2021/06/06 06:36:16;;;;;;;;;6.00;5.00;;;;;16.52;55.78;102342.06;5079282;27;45533;-73
2021/06/06 06:38:42;;;;;;;;;6.00;6.00;;;;;16.52;56.04;102343.84;5079255;27;45297;-73
2021/06/06 06:41:08;;;;;;;;;3.50;3.50;;;;;16.57;55.94;102352.53;5079948;27;45330;-74
2021/06/06 06:43:33;;;;;;;;;5.00;5.00;;;;;16.59;56.10;102349.84;5079299;27;46021;-73
2021/06/06 06:45:59;;;;;;;;;5.50;4.50;;;;;16.57;54.29;102341.91;5079327;27;45452;-73
2021/06/06 06:48:26;;;;;;;;;4.00;4.00;;;;;16.52;54.75;102346.50;5079510;28;45376;-74
2021/06/06 06:50:53;;;;;;;;;5.50;4.50;;;;;16.54;55.43;102349.97;5079516;27;45969;-73
2021/06/06 06:53:20;;;;;;;;;5.00;5.00;;;;;16.62;56.06;102350.59;5078091;28;47224;-73
2021/06/06 06:55:46;;;;;;;;;5.00;5.00;;;;;16.73;54.24;102354.69;5081386;27;45536;-73
2021/06/06 06:58:12;;;;;;;;;4.00;4.00;;;;;16.74;54.81;102345.81;5083194;27;45405;-73
2021/06/06 07:00:41;;;;;;;;;4.25;4.25;;;;;16.78;54.88;102336.81;5082106;27;45479;-73
2021/06/06 07:03:08;;;;;;;;;6.00;4.75;;;;;16.84;54.97;102344.56;5082144;28;45462;-76
2021/06/06 07:05:34;;;;;;;;;5.00;3.50;;;;;16.91;54.47;102350.53;5082748;27;45381;-76
2021/06/06 07:07:59;;;;;;;;;4.50;3.75;;;;;16.91;52.05;102352.31;5082749;27;45380;-76
2021/06/06 07:10:29;;;;;;;;;4.25;4.25;;;;;16.89;53.09;102351.50;5082977;27;45306;-76
2021/06/06 07:12:55;;;;;;;;;6.00;6.00;;;;;16.84;53.37;102349.84;5082365;27;45288;-74
2021/06/06 07:15:21;;;;;;;;;6.00;4.75;;;;;16.88;53.08;102347.97;5082508;28;45265;-74
2021/06/06 07:17:46;;;;;;;;;4.00;4.00;;;;;16.96;54.06;102345.91;5082563;28;45291;-75
2021/06/06 07:20:20;;;;;;;;;6.00;4.50;;;;;17.02;52.33;102354.59;5083213;28;45467;-75
2021/06/06 07:22:46;;;;;;;;;4.75;4.75;;;;;17.02;51.12;102343.97;5071512;28;45405;-75
2021/06/06 07:25:14;;;;;;;;;3.75;3.75;;;;;17.03;53.62;102343.94;5082844;27;45513;-75
2021/06/06 07:27:43;;;;;;;;;4.00;4.00;;;;;17.05;53.18;102347.41;5080317;28;45748;-75
2021/06/06 07:30:12;;;;;;;;;3.00;3.00;;;;;17.14;52.37;102351.50;5079579;28;46118;-74
2021/06/06 07:32:38;;;;;;;;;5.00;5.00;;;;;17.17;51.74;102353.22;5082346;27;45736;-74
2021/06/06 07:35:05;;;;;;;;;5.75;5.25;;;;;17.23;51.54;102347.72;5082889;27;45266;-74
2021/06/06 07:37:31;;;;;;;;;4.75;4.75;;;;;17.19;51.45;102349.59;5082998;27;45430;-74
2021/06/06 07:39:56;;;;;;;;;5.00;4.25;;;;;17.18;50.37;102349.66;5081379;27;45393;-75
2021/06/06 07:42:22;;;;;;;;;4.00;4.00;;;;;17.18;50.96;102347.00;5082367;27;45297;-74
2021/06/06 07:44:47;;;;;;;;;5.00;5.00;;;;;17.24;51.46;102351.22;5082900;27;45321;-74
2021/06/06 07:47:12;;;;;;;;;6.50;5.25;;;;;17.26;51.04;102350.22;5081712;27;45244;-74
2021/06/06 07:49:39;;;;;;;;;7.00;4.75;;;;;17.30;51.36;102351.88;5081992;27;45269;-75
2021/06/06 07:52:06;;;;;;;;;5.75;5.00;;;;;17.35;51.44;102351.72;5082542;27;46230;-75
2021/06/06 07:54:32;;;;;;;;;3.00;3.00;;;;;17.45;51.55;102351.38;5082229;28;45318;-75
2021/06/06 07:56:59;;;;;;;;;4.00;4.00;;;;;17.54;51.87;102357.22;5082010;27;45463;-75
2021/06/06 07:59:26;;;;;;;;;3.75;3.75;;;;;17.64;51.34;102356.88;5083194;27;45552;-75
2021/06/06 08:01:51;;;;;;;;;4.50;4.50;;;;;17.70;51.35;102346.03;5082240;28;46104;-75
2021/06/06 08:04:16;;;;;;;;;4.00;4.00;;;;;17.72;48.77;102357.47;5079806;27;45456;-75
2021/06/06 08:06:42;;;;;;;;;5.00;5.00;;;;;17.77;51.05;102357.28;5072075;28;45759;-75
2021/06/06 08:09:08;;;;;;;;;6.00;5.00;;;;;17.83;49.87;102353.53;5082184;27;45267;-75
2021/06/06 08:11:35;;;;;;;;;4.50;4.50;;;;;17.88;50.33;102354.19;5081779;27;45400;-75
2021/06/06 08:14:01;;;;;;;;;2.25;2.25;;;;;17.87;49.12;102352.47;5081492;27;45551;-75
2021/06/06 08:16:26;;;;;;;;;3.00;3.00;;;;;17.92;49.61;102341.66;5082020;27;45361;-75
2021/06/06 08:18:52;;;;;;;;;3.33;2.67;;;;;18.02;48.49;102345.72;5081789;27;45453;-75
2021/06/06 08:21:24;;;;;;;;;3.00;3.00;;;;;18.09;47.72;102343.66;5080312;27;46101;-76
2021/06/06 08:23:50;;;;;;;;;2.25;1.75;;;;;18.17;47.30;102346.91;5080104;28;45343;-75
2021/06/06 08:26:18;;;;;;;;;2.50;2.50;;;;;18.24;44.34;102346.66;5082123;27;45307;-75
2021/06/06 08:28:45;;;;;;;;;2.75;2.75;;;;;18.30;47.02;102333.09;5075169;28;46362;-75
2021/06/06 08:31:14;;;;;;;;;4.00;3.00;;;;;18.35;45.21;102340.94;5079125;27;46288;-75
2021/06/06 08:33:40;;;;;;;;;2.50;2.50;;;;;18.41;45.73;102343.31;5081210;27;45460;-75
2021/06/06 08:36:13;;;;;;;;;3.25;3.25;;;;;18.44;46.00;102333.44;5080870;28;45307;-75
2021/06/06 08:38:38;;;;;;;;;5.75;3.25;;;;;18.51;47.45;102326.06;5081380;27;45438;-75
2021/06/06 08:41:19;;;;;;;;;3.25;3.25;;;;;18.52;45.59;102333.09;5081436;27;45223;-75
2021/06/06 08:43:51;;;;;;;;;3.50;3.00;;;;;18.53;46.92;102323.31;5080770;27;45303;-75
2021/06/06 08:46:19;;;;;;;;;3.00;2.00;;;;;18.58;43.18;102331.09;5085364;27;45370;-75
2021/06/06 08:48:44;;;;;;;;;3.00;3.00;;;;;18.62;44.33;102333.56;5076919;27;45509;-75
2021/06/06 08:51:39;;;;;;;;;3.75;3.75;;;;;18.71;45.96;102329.69;5072582;27;45419;-75
2021/06/06 08:54:36;;;;;;;;;2.00;1.00;;;;;18.73;43.57;102338.47;5079817;28;45503;-75
2021/06/06 08:57:05;;;;;;;;;4.00;2.00;;;;;18.77;46.28;102328.53;5076531;28;46865;-75
2021/06/06 08:59:42;;;;;;;;;5.00;2.75;;;;;18.78;44.23;102331.16;5076950;28;47201;-75
2021/06/06 09:02:37;;;;;;;;;3.25;2.00;;;;;18.85;45.79;102329.06;5073651;27;45483;-74
2021/06/06 09:05:07;;;;;;;;;3.00;2.25;;;;;18.91;46.19;102327.09;5072214;28;45532;-74
2021/06/06 09:07:43;;;;;;;;;4.50;4.00;;;;;18.99;45.47;102327.59;5067577;28;45471;-75
2021/06/06 09:10:15;;;;;;;;;4.00;3.75;;;;;19.02;44.65;102319.47;5068744;28;45470;-74
2021/06/06 09:12:41;;;;;;;;;4.00;2.00;;;;;19.04;44.51;102316.75;5069982;28;45369;-74
2021/06/06 09:15:10;;;;;;;;;2.50;2.00;;;;;19.05;43.25;102321.13;5076599;27;45463;-74
2021/06/06 09:17:49;;;;;;;;;5.50;3.00;;;;;19.11;44.46;102318.22;5080280;27;45271;-74
2021/06/06 09:20:29;;;;;;;;;3.50;3.50;;;;;19.15;44.29;102319.81;5065832;27;45522;-75
2021/06/06 09:23:12;;;;;;;;;2.50;2.50;;;;;19.20;44.56;102320.50;5079628;28;46351;-74
2021/06/06 09:25:42;;;;;;;;;7.25;3.75;;;;;19.28;44.98;102316.63;5079899;27;45239;-75
2021/06/06 09:28:15;;;;;;;;;5.25;4.50;;;;;19.32;44.74;102316.41;5080858;27;45385;-74
2021/06/06 09:30:42;;;;;;;;;5.50;4.00;;;;;19.38;45.42;102315.28;5080906;27;45412;-74
2021/06/06 09:33:13;;;;;;;;;5.25;4.25;;;;;19.44;45.73;102324.78;5084030;27;46104;-74
2021/06/06 09:35:50;;;;;;;;;6.00;6.00;;;;;19.52;45.75;102324.44;5093909;27;45399;-74
2021/06/06 09:38:30;;;;;;;;;6.50;6.50;;;;;19.60;44.86;102324.09;5081591;27;45431;-75
2021/06/06 09:41:08;;;;;;;;;4.25;4.00;;;;;19.65;46.04;102322.94;5085577;27;45373;-75
2021/06/06 09:43:33;;;;;;;;;4.50;4.50;;;;;19.73;45.30;102317.22;5082524;27;46476;-75
2021/06/06 09:46:09;;;;;;;;;3.50;2.50;;;;;19.83;44.90;102320.31;5078998;27;45675;-75
2021/06/06 09:48:40;;;;;;;;;4.50;4.00;;;;;19.91;45.48;102322.63;5088488;27;45281;-74
2021/06/06 09:51:11;;;;;;;;;4.75;3.75;;;;;20.02;46.55;102323.00;5078566;27;45891;-75
2021/06/06 09:53:39;;;;;;;;;3.25;3.25;;;;;20.09;45.71;102323.56;5075389;27;48673;-74
2021/06/06 09:56:08;;;;;;;;;3.75;3.25;;;;;20.28;46.13;102320.00;5085236;27;45508;-74
2021/06/06 09:58:39;;;;;;;;;7.25;6.00;;;;;20.40;44.30;102313.19;5079538;27;45290;-74
2021/06/06 10:01:26;;;;;;;;;5.25;3.75;;;;;20.58;44.99;102326.56;5069953;27;45458;-74
2021/06/06 10:04:04;;;;;;;;;8.25;6.00;;;;;20.74;45.00;102329.31;5080698;27;46007;-74
2021/06/06 10:06:32;;;;;;;;;6.25;6.00;;;;;20.91;45.79;102327.59;5067991;27;46086;-75
2021/06/06 10:09:22;;;;;;;;;4.25;4.25;;;;;21.08;45.30;102317.84;5079425;27;45563;-75
2021/06/06 10:11:57;;;;;;;;;5.00;5.00;;;;;21.21;45.12;102323.41;5065745;28;45422;-75
2021/06/06 10:14:42;;;;;;;;;4.50;4.50;;;;;21.27;43.78;102319.53;5083990;27;45357;-74
2021/06/06 10:17:12;;;;;;;;;4.75;4.75;;;;;21.23;44.28;102326.88;5068382;28;45309;-75
2021/06/06 10:19:49;;;;;;;;;5.25;5.00;;;;;21.21;44.00;102318.91;5077032;27;45520;-76
2021/06/06 10:22:21;;;;;;;;;4.25;4.25;;;;;21.22;43.99;102320.66;5088284;27;45459;-76
2021/06/06 10:25:10;;;;;;;;;5.00;5.00;;;;;21.21;43.94;102323.41;5059761;27;45345;-75
2021/06/06 10:27:57;;;;;;;;;6.25;6.25;;;;;21.17;45.67;102317.34;5060678;28;45791;-76
2021/06/06 10:30:31;;;;;;;;;3.25;3.00;;;;;21.18;43.75;102316.41;5049940;28;45503;-75
2021/06/06 10:33:12;;;;;;;;;6.75;6.75;;;;;21.23;45.13;102322.38;5058365;28;45509;-79
2021/06/06 10:35:38;;;;;;;;;4.75;3.50;;;;;21.33;45.27;102322.75;5057173;28;46404;-79
2021/06/06 10:38:04;;;;;;;;;6.00;4.00;;;;;21.44;45.56;102322.16;5070162;28;44772;-82
2021/06/06 10:40:51;;;;;;;;;6.50;6.50;;;;;21.59;45.31;102323.13;5090960;28;44789;-87
2021/06/06 10:43:41;;;;;;;;;5.00;5.00;;;;;21.74;45.23;102317.00;5072641;28;45333;-88
2021/06/06 10:46:12;;;;;;;;;6.75;5.00;;;;;21.88;45.99;102313.56;5059020;28;46219;-87
2021/06/06 10:48:54;;;;;;;;;5.00;5.00;;;;;22.00;44.55;102317.41;5059559;28;45566;-88
2021/06/06 10:51:41;;;;;;;;;4.75;4.00;;;;;22.06;44.37;102322.38;5060932;28;45302;-88
2021/06/06 10:54:33;;;;;;;;;4.00;3.50;;;;;22.06;43.70;102316.16;5060234;28;45263;-87
2021/06/06 10:57:03;;;;;;;;;5.25;4.50;;;;;22.08;44.61;102316.94;5055758;28;48221;-88
2021/06/06 10:59:31;;;;;;;;;4.00;4.00;;;;;22.08;44.19;102315.13;5039791;28;45658;-88
2021/06/06 11:01:58;;;;;;;;;4.75;4.75;;;;;22.06;44.23;102310.81;5048710;28;45216;-88
2021/06/06 11:04:28;;;;;;;;;4.75;4.75;;;;;21.98;44.61;102316.59;5067105;28;45577;-87
2021/06/06 11:07:08;;;;;;;;;6.25;6.25;;;;;21.90;44.23;102309.84;5058839;28;46141;-88
2021/06/06 11:09:37;;;;;;;;;5.50;5.50;;;;;21.81;44.40;102297.84;5059531;28;45512;-87
2021/06/06 11:12:12;;;;;;;;;6.00;4.50;;;;;21.80;44.58;102309.47;5059274;28;46706;-86
2021/06/06 11:14:48;;;;;;;;;5.25;4.00;;;;;21.75;44.82;102298.22;5059387;28;45358;-87
2021/06/06 11:17:13;;;;;;;;;5.00;4.00;;;;;21.77;44.99;102296.31;5059197;28;45346;-88
2021/06/06 11:19:39;;;;;;;;;3.00;3.00;;;;;21.79;44.52;102296.22;5049683;28;45275;-88
2021/06/06 11:22:21;;;;;;;;;3.25;3.25;;;;;21.77;44.94;102288.28;5059606;28;45294;-87
2021/06/06 11:24:49;;;;;;;;;3.50;3.50;;;;;21.78;44.23;102287.31;5059355;28;45368;-87
2021/06/06 11:27:25;;;;;;;;;4.50;4.50;;;;;21.77;44.10;102282.91;5058584;28;45238;-88
2021/06/06 11:30:05;;;;;;;;;5.75;3.75;;;;;21.76;44.09;102288.34;5059008;28;45299;-88
2021/06/06 11:32:38;;;;;;;;;5.50;5.00;;;;;21.74;44.38;102283.09;5059658;28;45297;-87
2021/06/06 11:35:25;;;;;;;;;5.00;3.75;;;;;21.76;44.48;102283.88;5059390;28;45559;-88
2021/06/06 11:37:54;;;;;;;;;5.00;5.00;;;;;21.75;45.16;102268.78;5058906;28;45328;-87